createdAt,value
2022-11-25T00:01:33.501Z,2.35
2022-11-25T00:04:00.826Z,2.33
2022-11-25T00:06:35.477Z,2.34
2022-11-25T00:09:04.025Z,2.32
2022-11-25T00:11:30.893Z,2.30
2022-11-25T00:13:58.437Z,2.31
2022-11-25T00:16:28.861Z,2.33
2022-11-25T00:18:56.924Z,2.34
2022-11-25T00:21:26.638Z,2.33
2022-11-25T00:23:54.140Z,2.32
2022-11-25T00:26:22.496Z,2.30
2022-11-25T00:28:50.268Z,2.30
2022-11-25T00:31:22.239Z,2.32
2022-11-25T00:33:49.461Z,2.32
2022-11-25T00:36:20.362Z,2.30
2022-11-25T00:38:47.952Z,2.31
2022-11-25T00:41:33.396Z,2.28
2022-11-25T00:44:18.122Z,2.27
2022-11-25T00:46:44.654Z,2.25
2022-11-25T00:49:12.389Z,2.28
2022-11-25T00:51:39.455Z,2.33
2022-11-25T00:54:06.083Z,2.34
2022-11-25T00:56:32.667Z,2.26
2022-11-25T00:58:59.332Z,2.19
2022-11-25T01:01:26.949Z,2.09
2022-11-25T01:03:54.175Z,2.05
2022-11-25T01:06:22.001Z,2.01
2022-11-25T01:08:48.852Z,1.93
2022-11-25T01:11:18.608Z,1.93
2022-11-25T01:13:45.960Z,1.91
2022-11-25T01:16:16.254Z,1.91
2022-11-25T01:18:43.309Z,1.82
2022-11-25T01:21:20.076Z,1.93
2022-11-25T01:23:48.529Z,1.97
2022-11-25T01:26:17.868Z,1.90
2022-11-25T01:28:44.812Z,1.92
2022-11-25T01:31:20.020Z,1.95
2022-11-25T01:33:48.393Z,1.99
2022-11-25T01:36:17.808Z,2.00
2022-11-25T01:38:45.599Z,2.01
2022-11-25T01:41:14.420Z,2.00
2022-11-25T01:43:41.970Z,2.05
2022-11-25T01:46:17.642Z,1.99
2022-11-25T01:49:01.137Z,1.95
2022-11-25T01:51:35.001Z,1.95
2022-11-25T01:54:04.941Z,1.93
2022-11-25T01:56:36.384Z,1.85
2022-11-25T01:59:03.124Z,1.82
2022-11-25T02:01:29.830Z,1.86
2022-11-25T02:03:58.750Z,1.91
2022-11-25T02:06:28.806Z,1.83
2022-11-25T02:09:07.210Z,1.81
2022-11-25T02:11:36.711Z,1.77
2022-11-25T02:14:03.728Z,1.73
2022-11-25T02:16:30.432Z,1.70
2022-11-25T02:18:57.553Z,1.66
2022-11-25T02:21:35.901Z,1.74
2022-11-25T02:24:17.012Z,1.79
2022-11-25T02:26:43.682Z,1.76
2022-11-25T02:29:10.302Z,1.73
2022-11-25T02:31:36.885Z,1.70
2022-11-25T02:34:03.423Z,1.73
2022-11-25T02:36:29.994Z,1.78
2022-11-25T02:39:00.577Z,1.80
2022-11-25T02:41:37.380Z,1.76
2022-11-25T02:44:04.240Z,1.73
2022-11-25T02:46:31.452Z,1.72
2022-11-25T02:49:15.025Z,1.70
2022-11-25T02:51:44.516Z,1.72
2022-11-25T02:54:13.078Z,1.77
2022-11-25T02:56:40.462Z,1.75
2022-11-25T02:59:07.857Z,1.76
2022-11-25T03:01:35.434Z,1.78
2022-11-25T03:04:02.513Z,1.78
2022-11-25T03:06:30.367Z,1.80
2022-11-25T03:08:57.890Z,1.79
2022-11-25T03:11:44.896Z,1.84
2022-11-25T03:14:11.716Z,1.84
2022-11-25T03:16:38.314Z,1.80
2022-11-25T03:19:04.903Z,1.68
2022-11-25T03:21:31.716Z,1.70
2022-11-25T03:23:58.244Z,1.74
2022-11-25T03:26:26.133Z,1.76
2022-11-25T03:28:52.910Z,1.75
2022-11-25T03:31:19.677Z,1.67
2022-11-25T03:33:46.388Z,1.69
2022-11-25T03:36:13.145Z,1.64
2022-11-25T03:38:40.060Z,1.52
2022-11-25T03:41:06.933Z,1.46
2022-11-25T03:43:33.494Z,1.37
2022-11-25T03:46:00.045Z,1.35
2022-11-25T03:48:26.617Z,1.35
2022-11-25T03:50:53.228Z,1.25
2022-11-25T03:53:19.746Z,1.12
2022-11-25T03:55:48.032Z,1.06
2022-11-25T03:58:14.595Z,0.97
2022-11-25T04:00:41.073Z,0.88
2022-11-25T04:03:07.572Z,0.82
2022-11-25T04:05:34.109Z,0.79
2022-11-25T04:08:00.674Z,0.70
2022-11-25T04:10:27.257Z,0.58
2022-11-25T04:12:54.741Z,0.55
2022-11-25T04:15:21.641Z,0.55
2022-11-25T04:17:48.358Z,0.63
2022-11-25T04:20:15.439Z,0.62
2022-11-25T04:22:42.392Z,0.50
2022-11-25T04:25:10.055Z,0.41
2022-11-25T04:27:36.577Z,0.28
2022-11-25T04:30:03.402Z,0.27
2022-11-25T04:32:29.928Z,0.26
2022-11-25T04:34:56.465Z,0.30
2022-11-25T04:37:23.003Z,0.25
2022-11-25T04:39:49.649Z,0.13
2022-11-25T04:42:37.972Z,0.10
2022-11-25T04:45:25.422Z,0.02
2022-11-25T04:47:52.675Z,-0.05
2022-11-25T04:50:21.405Z,-0.12
2022-11-25T04:52:48.087Z,-0.10
2022-11-25T04:55:14.665Z,-0.14
2022-11-25T04:57:41.328Z,-0.16
2022-11-25T05:00:09.538Z,-0.18
2022-11-25T05:02:36.655Z,-0.13
2022-11-25T05:05:03.582Z,-0.08
2022-11-25T05:07:30.412Z,0.02
2022-11-25T05:09:57.419Z,0.15
2022-11-25T05:12:27.393Z,0.18
2022-11-25T05:14:54.045Z,0.22
2022-11-25T05:17:26.833Z,0.29
2022-11-25T05:19:53.435Z,0.49
2022-11-25T05:22:26.020Z,0.53
2022-11-25T05:24:52.526Z,0.59
2022-11-25T05:27:19.888Z,0.58
2022-11-25T05:29:49.166Z,0.57
2022-11-25T05:32:19.788Z,0.57
2022-11-25T05:34:46.338Z,0.63
2022-11-25T05:37:14.193Z,0.62
2022-11-25T05:39:40.704Z,0.61
2022-11-25T05:42:07.582Z,0.56
2022-11-25T05:44:34.111Z,0.52
2022-11-25T05:47:00.612Z,0.55
2022-11-25T05:49:27.100Z,0.59
2022-11-25T05:51:53.608Z,0.60
2022-11-25T05:54:20.160Z,0.72
2022-11-25T05:56:46.696Z,0.76
2022-11-25T05:59:13.251Z,0.78
2022-11-25T06:01:39.793Z,0.73
2022-11-25T06:04:06.811Z,0.74
2022-11-25T06:06:33.331Z,0.73
2022-11-25T06:09:00.493Z,0.71
2022-11-25T06:11:27.523Z,0.63
2022-11-25T06:13:56.804Z,0.48
2022-11-25T06:16:23.996Z,0.48
2022-11-25T06:18:50.922Z,0.37
2022-11-25T06:21:18.211Z,0.34
2022-11-25T06:23:47.679Z,0.35
2022-11-25T06:26:22.111Z,0.25
2022-11-25T06:28:50.490Z,0.26
2022-11-25T06:31:20.457Z,0.34
2022-11-25T06:33:49.158Z,0.35
2022-11-25T06:36:18.944Z,0.31
2022-11-25T06:38:53.744Z,0.27
2022-11-25T06:41:21.918Z,0.28
2022-11-25T06:43:48.429Z,0.35
2022-11-25T06:46:23.066Z,0.45
2022-11-25T06:48:51.400Z,0.49
2022-11-25T06:51:18.694Z,0.58
2022-11-25T06:53:47.334Z,0.65
2022-11-25T06:56:17.096Z,0.72
2022-11-25T06:58:44.592Z,0.77
2022-11-25T07:01:15.392Z,0.84
2022-11-25T07:03:43.219Z,0.88
2022-11-25T07:06:12.116Z,0.91
2022-11-25T07:08:38.747Z,0.98
2022-11-25T07:11:07.979Z,1.00
2022-11-25T07:13:34.785Z,1.05
2022-11-25T07:16:06.206Z,1.10
2022-11-25T07:18:35.386Z,1.15
2022-11-25T07:21:07.552Z,1.20
2022-11-25T07:23:35.545Z,1.29
2022-11-25T07:26:07.563Z,1.37
2022-11-25T07:28:35.273Z,1.47
2022-11-25T07:34:02.648Z,1.67
2022-11-25T07:36:30.558Z,1.78
2022-11-25T07:39:02.480Z,1.89
2022-11-25T07:41:29.704Z,2.01
2022-11-25T07:44:01.328Z,2.12
2022-11-25T07:46:33.592Z,2.24
2022-11-25T07:49:03.966Z,2.42
2022-11-25T07:51:35.053Z,2.63
2022-11-25T07:54:03.781Z,2.81
2022-11-25T07:56:31.116Z,3.04
2022-11-25T07:58:57.969Z,3.24
2022-11-25T08:01:25.513Z,3.47
2022-11-25T08:03:52.542Z,3.68
2022-11-25T08:06:22.524Z,3.87
2022-11-25T08:08:50.840Z,4.10
2022-11-25T08:11:21.158Z,4.33
2022-11-25T08:13:48.722Z,4.56
2022-11-25T08:16:17.476Z,4.79
2022-11-25T08:18:44.277Z,5.15
2022-11-25T08:21:13.290Z,5.69
2022-11-25T08:23:43.026Z,6.17
2022-11-25T08:26:13.123Z,6.55
2022-11-25T08:28:41.486Z,6.87
2022-11-25T08:31:11.889Z,7.24
2022-11-25T08:33:39.204Z,7.75
2022-11-25T08:36:06.666Z,8.26
2022-11-25T08:38:33.773Z,8.46
2022-11-25T08:41:00.961Z,8.84
2022-11-25T08:43:29.532Z,9.45
2022-11-25T08:45:56.799Z,10.12
2022-11-25T08:48:23.601Z,10.32
2022-11-25T08:50:54.089Z,10.65
2022-11-25T08:53:21.915Z,10.71
2022-11-25T08:55:49.560Z,10.94
2022-11-25T08:58:16.120Z,11.15
2022-11-25T09:00:45.511Z,11.14
2022-11-25T09:03:12.542Z,11.45
2022-11-25T09:05:42.321Z,12.00
2022-11-25T09:08:10.095Z,12.26
2022-11-25T09:10:38.609Z,12.64
2022-11-25T09:13:05.561Z,12.97
2022-11-25T09:15:32.578Z,13.09
2022-11-25T09:18:05.201Z,13.75
2022-11-25T09:20:33.613Z,13.97
2022-11-25T09:23:01.230Z,13.66
2022-11-25T09:25:28.734Z,13.95
2022-11-25T09:27:56.632Z,13.92
2022-11-25T09:30:24.001Z,14.39
2022-11-25T09:32:52.861Z,14.98
2022-11-25T09:35:19.784Z,15.25
2022-11-25T09:37:46.853Z,15.71
2022-11-25T09:40:37.396Z,15.85
2022-11-25T09:44:06.369Z,16.50
2022-11-25T09:46:49.253Z,16.59
2022-11-25T09:49:51.002Z,16.63
2022-11-25T09:52:30.214Z,16.44
2022-11-25T09:55:10.205Z,16.67
2022-11-25T09:57:59.439Z,17.17
2022-11-25T10:00:36.328Z,17.84
2022-11-25T10:03:33.676Z,18.22
2022-11-25T10:06:06.946Z,18.18
2022-11-25T10:09:10.579Z,18.37
2022-11-25T10:11:46.490Z,18.80
2022-11-25T10:14:22.142Z,18.76
2022-11-25T10:16:55.385Z,19.18
2022-11-25T10:20:01.676Z,19.09
2022-11-25T10:22:34.968Z,18.90
2022-11-25T10:25:18.254Z,18.98
2022-11-25T10:27:59.447Z,19.30
2022-11-25T10:30:32.554Z,19.52
2022-11-25T10:33:15.166Z,19.76
2022-11-25T10:35:49.130Z,20.34
2022-11-25T10:38:29.258Z,19.92
2022-11-25T10:40:56.051Z,20.12
2022-11-25T10:43:26.081Z,20.52
2022-11-25T10:46:50.085Z,20.85
2022-11-25T10:50:02.250Z,20.35
2022-11-25T10:52:33.185Z,20.15
2022-11-25T10:55:16.195Z,20.06
2022-11-25T10:57:43.198Z,20.63
2022-11-25T11:00:32.293Z,20.31
2022-11-25T11:03:12.543Z,19.98
2022-11-25T11:05:46.776Z,20.62
2022-11-25T11:08:13.452Z,20.58
2022-11-25T11:10:40.265Z,20.70
2022-11-25T11:13:22.158Z,20.82
2022-11-25T11:15:49.379Z,21.01
2022-11-25T11:18:37.797Z,20.09
2022-11-25T11:21:08.008Z,19.74
2022-11-25T11:23:55.655Z,18.94
2022-11-25T11:26:25.799Z,18.04
2022-11-25T11:29:14.301Z,16.95
2022-11-25T11:31:51.615Z,16.37
2022-11-25T11:34:39.673Z,16.08
2022-11-25T11:37:22.502Z,15.97
2022-11-25T11:40:33.614Z,16.30
2022-11-25T11:43:27.584Z,16.51
2022-11-25T11:45:54.033Z,16.44
2022-11-25T11:48:23.542Z,16.24
2022-11-25T11:51:09.425Z,16.56
2022-11-25T11:53:53.039Z,16.59
2022-11-25T11:56:42.618Z,16.80
2022-11-25T11:59:23.969Z,16.33
2022-11-25T12:02:15.777Z,16.54
2022-11-25T12:04:55.959Z,17.13
2022-11-25T12:07:28.500Z,17.02
2022-11-25T12:10:13.992Z,17.37
2022-11-25T12:12:45.508Z,17.35
2022-11-25T12:15:24.585Z,17.66
2022-11-25T12:18:09.440Z,17.93
2022-11-25T12:20:56.190Z,17.88
2022-11-25T12:23:37.629Z,17.76
2022-11-25T12:26:12.350Z,18.06
2022-11-25T12:28:51.994Z,18.05
2022-11-25T12:31:37.737Z,18.09
2022-11-25T12:34:11.947Z,18.12
2022-11-25T12:36:46.013Z,17.78
2022-11-25T12:39:21.096Z,17.75
2022-11-25T12:41:54.958Z,18.11
2022-11-25T12:44:26.910Z,18.35
2022-11-25T12:46:55.730Z,18.45
2022-11-25T12:49:28.126Z,18.11
2022-11-25T12:52:09.735Z,17.49
2022-11-25T12:54:42.243Z,17.23
2022-11-25T12:57:20.928Z,17.21
2022-11-25T13:00:39.826Z,16.87
2022-11-25T13:03:35.284Z,16.73
2022-11-25T13:06:20.626Z,17.07
2022-11-25T13:08:59.257Z,17.33
2022-11-25T13:11:44.798Z,17.52
2022-11-25T13:14:28.355Z,18.11
2022-11-25T13:16:57.517Z,17.44
2022-11-25T13:19:24.957Z,17.38
2022-11-25T13:22:02.870Z,17.37
2022-11-25T13:24:41.834Z,16.80
2022-11-25T13:27:31.425Z,16.32
2022-11-25T13:29:59.530Z,16.19
2022-11-25T13:32:27.688Z,16.02
2022-11-25T13:35:31.214Z,15.98
2022-11-25T13:37:57.838Z,15.36
2022-11-25T13:40:28.644Z,14.81
2022-11-25T13:42:55.627Z,14.17
2022-11-25T13:45:44.275Z,13.77
2022-11-25T13:48:23.366Z,13.45
2022-11-25T13:53:39.446Z,12.43
2022-11-25T13:56:23.513Z,12.38
2022-11-25T13:59:11.636Z,12.25
2022-11-25T14:02:00.476Z,12.15
2022-11-25T14:05:06.134Z,12.30
2022-11-25T14:07:44.648Z,12.73
2022-11-25T14:10:26.599Z,12.85
2022-11-25T14:13:23.559Z,13.24
2022-11-25T14:16:08.797Z,13.23
2022-11-25T14:19:49.541Z,13.12
2022-11-25T14:22:08.438Z,13.09
2022-11-25T14:25:01.247Z,12.92
2022-11-25T14:27:34.055Z,12.60
2022-11-25T14:30:12.190Z,12.44
2022-11-25T14:32:56.034Z,12.38
2022-11-25T14:35:43.555Z,12.05
2022-11-25T14:38:26.733Z,11.72
2022-11-25T14:41:08.478Z,11.54
2022-11-25T14:43:45.798Z,11.32
2022-11-25T14:46:20.663Z,11.07
2022-11-25T14:48:57.902Z,10.94
2022-11-25T14:51:27.143Z,10.81
2022-11-25T14:53:54.055Z,10.62
2022-11-25T14:56:30.761Z,10.57
2022-11-25T14:58:58.895Z,10.42
2022-11-25T15:01:33.795Z,10.28
2022-11-25T15:04:18.834Z,10.20
2022-11-25T15:07:00.689Z,10.08
2022-11-25T15:09:31.906Z,9.91
2022-11-25T15:12:01.954Z,9.89
2022-11-25T15:14:34.778Z,9.68
2022-11-25T15:17:07.847Z,9.43
2022-11-25T15:19:36.882Z,9.23
2022-11-25T15:22:24.364Z,9.29
2022-11-25T15:24:55.983Z,9.19
2022-11-25T15:27:28.297Z,9.06
2022-11-25T15:29:57.525Z,9.12
2022-11-25T15:32:32.767Z,9.04
2022-11-25T15:35:01.452Z,9.26
2022-11-25T15:37:28.858Z,9.18
2022-11-25T15:40:29.362Z,8.84
2022-11-25T15:43:00.142Z,8.53
2022-11-25T15:45:33.697Z,8.42
2022-11-25T15:48:00.460Z,8.32
2022-11-25T15:50:28.061Z,8.19
2022-11-25T15:52:58.932Z,8.19
2022-11-25T15:55:34.545Z,8.03
2022-11-25T15:58:22.781Z,7.91
2022-11-25T16:01:06.097Z,7.90
2022-11-25T16:03:35.439Z,7.80
2022-11-25T16:06:17.901Z,7.75
2022-11-25T16:08:55.990Z,7.54
2022-11-25T16:11:25.505Z,7.36
2022-11-25T16:13:53.232Z,7.41
2022-11-25T16:16:24.054Z,7.27
2022-11-25T16:18:50.644Z,7.19
2022-11-25T16:21:21.021Z,7.20
2022-11-25T16:23:51.730Z,7.12
2022-11-25T16:26:29.827Z,6.99
2022-11-25T16:28:58.914Z,7.08
2022-11-25T16:31:26.864Z,6.95
2022-11-25T16:34:01.773Z,6.89
2022-11-25T16:36:28.361Z,6.89
2022-11-25T16:38:54.889Z,6.90
2022-11-25T16:41:24.975Z,6.79
2022-11-25T16:43:52.193Z,6.78
2022-11-25T16:46:20.205Z,6.78
2022-11-25T16:48:47.640Z,6.79
2022-11-25T16:51:22.424Z,6.74
2022-11-25T16:53:48.939Z,6.74
2022-11-25T16:56:20.828Z,6.71
2022-11-25T16:58:47.647Z,6.72
2022-11-25T17:01:16.983Z,6.78
2022-11-25T17:03:44.029Z,6.79
2022-11-25T17:06:21.696Z,6.81
2022-11-25T17:08:49.488Z,6.75
2022-11-25T17:11:22.168Z,6.68
2022-11-25T17:13:51.965Z,6.74
2022-11-25T17:16:22.198Z,6.69
2022-11-25T17:18:50.108Z,6.76
2022-11-25T17:21:17.629Z,6.74
2022-11-25T17:23:45.196Z,6.75
2022-11-25T17:26:22.089Z,6.72
2022-11-25T17:28:55.989Z,6.75
2022-11-25T17:31:26.932Z,6.81
2022-11-25T17:33:54.048Z,6.74
2022-11-25T17:36:21.691Z,6.73
2022-11-25T17:38:48.490Z,6.71
2022-11-25T17:41:18.193Z,6.68
2022-11-25T17:43:47.589Z,6.67
2022-11-25T17:46:16.253Z,6.61
2022-11-25T17:48:44.016Z,6.57
2022-11-25T17:51:14.851Z,6.51
2022-11-25T17:53:42.034Z,6.45
2022-11-25T17:56:30.409Z,6.37
2022-11-25T17:59:02.482Z,6.36
2022-11-25T18:01:29.084Z,6.29
2022-11-25T18:03:55.756Z,6.30
2022-11-25T18:06:23.561Z,6.24
2022-11-25T18:08:50.063Z,6.18
2022-11-25T18:11:19.802Z,6.17
2022-11-25T18:13:47.599Z,6.14
2022-11-25T18:16:18.010Z,6.05
2022-11-25T18:18:44.668Z,6.00
2022-11-25T18:21:11.947Z,5.98
2022-11-25T18:23:38.469Z,5.97
2022-11-25T18:26:05.284Z,5.87
2022-11-25T18:28:32.537Z,5.87
2022-11-25T18:31:03.902Z,5.87
2022-11-25T18:33:32.069Z,5.86
2022-11-25T18:35:58.696Z,5.89
2022-11-25T18:38:25.338Z,5.82
2022-11-25T18:40:53.708Z,5.78
2022-11-25T18:43:25.382Z,5.83
2022-11-25T18:45:54.193Z,5.78
2022-11-25T18:48:23.606Z,5.77
2022-11-25T18:50:51.940Z,5.75
2022-11-25T18:53:19.113Z,5.75
2022-11-25T18:55:46.894Z,5.74
2022-11-25T18:58:25.092Z,5.73
2022-11-25T19:00:52.586Z,5.69
2022-11-25T19:03:26.153Z,5.69
2022-11-25T19:05:58.560Z,5.63
2022-11-25T19:08:25.341Z,5.59
2022-11-25T19:10:52.110Z,5.54
2022-11-25T19:13:33.214Z,5.52
2022-11-25T19:16:07.531Z,5.46
2022-11-25T19:18:35.157Z,5.44
2022-11-25T19:21:01.758Z,5.41
2022-11-25T19:23:28.911Z,5.33
2022-11-25T19:26:11.710Z,5.27
2022-11-25T19:28:38.405Z,5.20
2022-11-25T19:31:05.577Z,5.09
2022-11-25T19:33:38.935Z,5.02
2022-11-25T19:36:06.995Z,4.89
2022-11-25T19:38:34.879Z,4.82
2022-11-25T19:41:01.524Z,4.66
2022-11-25T19:43:28.208Z,4.49
2022-11-25T19:45:57.063Z,4.45
2022-11-25T19:48:29.417Z,4.31
2022-11-25T19:51:04.662Z,4.26
2022-11-25T19:53:34.124Z,4.09
2022-11-25T19:56:04.134Z,3.95
2022-11-25T19:58:31.071Z,3.87
2022-11-25T20:01:00.676Z,3.72
2022-11-25T20:03:29.989Z,3.63
2022-11-25T20:05:56.949Z,3.59
2022-11-25T20:08:26.547Z,3.51
2022-11-25T20:10:54.605Z,3.46
2022-11-25T20:13:23.464Z,3.34
2022-11-25T20:15:50.703Z,3.19
2022-11-25T20:18:22.367Z,3.13
2022-11-25T20:20:56.055Z,3.07
2022-11-25T20:23:27.616Z,3.03
2022-11-25T20:25:54.545Z,2.97
2022-11-25T20:28:26.736Z,2.92
2022-11-25T20:30:53.956Z,2.87
2022-11-25T20:33:24.377Z,2.82
2022-11-25T20:35:57.042Z,2.82
2022-11-25T20:38:26.806Z,2.78
2022-11-25T20:40:56.702Z,2.74
2022-11-25T20:43:23.165Z,2.62
2022-11-25T20:45:50.933Z,2.55
2022-11-25T20:48:17.625Z,2.51
2022-11-25T20:50:44.385Z,2.47
2022-11-25T20:53:15.930Z,2.38
2022-11-25T20:55:43.304Z,2.41
2022-11-25T20:58:27.608Z,2.42
2022-11-25T21:00:57.476Z,2.43
2022-11-25T21:03:25.568Z,2.48
2022-11-25T21:05:53.555Z,2.51
2022-11-25T21:08:23.341Z,2.60
2022-11-25T21:10:55.556Z,2.70
2022-11-25T21:13:28.329Z,2.76
2022-11-25T21:15:55.118Z,2.81
2022-11-25T21:18:21.993Z,2.86
2022-11-25T21:20:51.316Z,2.89
2022-11-25T21:23:24.609Z,2.96
2022-11-25T21:25:51.540Z,2.98
2022-11-25T21:28:22.169Z,3.01
2022-11-25T21:30:49.257Z,3.04
2022-11-25T21:33:16.617Z,3.06
2022-11-25T21:35:46.609Z,3.07
2022-11-25T21:38:24.994Z,3.08
2022-11-25T21:40:54.068Z,3.12
2022-11-25T21:43:24.347Z,3.16
2022-11-25T21:46:06.147Z,3.12
2022-11-25T21:48:33.662Z,3.08
2022-11-25T21:51:00.255Z,3.09
2022-11-25T21:53:26.944Z,3.15
2022-11-25T21:55:53.801Z,3.13
2022-11-25T21:58:28.721Z,3.13
2022-11-25T22:01:00.605Z,3.15
2022-11-25T22:03:31.636Z,3.17
2022-11-25T22:05:58.187Z,3.21
2022-11-25T22:08:24.775Z,3.18
2022-11-25T22:10:54.552Z,3.18
2022-11-25T22:13:23.491Z,3.18
2022-11-25T22:15:57.217Z,3.20
2022-11-25T22:18:38.561Z,3.24
2022-11-25T22:21:05.272Z,3.20
2022-11-25T22:23:31.756Z,3.16
2022-11-25T22:25:58.689Z,3.19
2022-11-25T22:28:27.853Z,3.22
2022-11-25T22:31:05.062Z,3.29
2022-11-25T22:33:35.248Z,3.29
2022-11-25T22:36:02.584Z,3.24
2022-11-25T22:38:30.040Z,3.24
2022-11-25T22:41:00.981Z,3.25
2022-11-25T22:43:30.528Z,3.23
2022-11-25T22:45:57.391Z,3.27
2022-11-25T22:48:32.545Z,3.25
2022-11-25T22:50:59.428Z,3.23
2022-11-25T22:53:26.232Z,3.22
2022-11-25T22:56:00.105Z,3.27
2022-11-25T22:58:27.666Z,3.26
2022-11-25T23:00:56.095Z,3.28
2022-11-25T23:03:33.389Z,3.19
2022-11-25T23:06:01.818Z,3.17
2022-11-25T23:08:31.577Z,3.15
2022-11-25T23:10:58.354Z,3.20
2022-11-25T23:13:24.920Z,3.16
2022-11-25T23:16:00.884Z,3.14
2022-11-25T23:18:38.437Z,3.17
2022-11-25T23:21:18.264Z,3.18
2022-11-25T23:23:45.113Z,3.13
2022-11-25T23:26:12.788Z,3.10
2022-11-25T23:28:39.443Z,3.15
2022-11-25T23:31:06.560Z,3.13
2022-11-25T23:33:43.879Z,3.17
2022-11-25T23:36:18.693Z,3.11
2022-11-25T23:38:49.911Z,3.06
2022-11-25T23:41:26.783Z,3.03
2022-11-25T23:43:54.201Z,2.99
2022-11-25T23:46:24.711Z,3.03
2022-11-25T23:48:57.361Z,3.00
2022-11-25T23:51:25.266Z,3.00
2022-11-25T23:53:52.406Z,3.10
2022-11-25T23:56:19.440Z,3.08
2022-11-25T23:58:47.517Z,3.11
